sensor_id;sensor_type;location;lat;lon;timestamp;P1;durP1;ratioP1;P2;durP2;ratioP2
59854;SDS011;45732;52.850;6.896;2023-12-28T00:00:47;5.90;;;3.00;;
59854;SDS011;45732;52.850;6.896;2023-12-28T00:03:13;7.03;;;2.90;;
59854;SDS011;45732;52.850;6.896;2023-12-28T00:05:39;6.93;;;3.03;;
59854;SDS011;45732;52.850;6.896;2023-12-28T00:08:05;7.30;;;3.13;;
59854;SDS011;45732;52.850;6.896;2023-12-28T00:10:30;5.65;;;2.67;;
59854;SDS011;45732;52.850;6.896;2023-12-28T00:12:56;6.85;;;3.50;;
59854;SDS011;45732;52.850;6.896;2023-12-28T00:15:22;6.28;;;3.08;;
59854;SDS011;45732;52.850;6.896;2023-12-28T00:17:48;6.72;;;3.10;;
59854;SDS011;45732;52.850;6.896;2023-12-28T00:20:14;7.07;;;3.60;;
59854;SDS011;45732;52.850;6.896;2023-12-28T00:22:39;6.25;;;3.30;;
59854;SDS011;45732;52.850;6.896;2023-12-28T00:25:05;7.95;;;3.35;;
59854;SDS011;45732;52.850;6.896;2023-12-28T00:27:31;6.57;;;3.17;;
59854;SDS011;45732;52.850;6.896;2023-12-28T00:29:59;6.93;;;3.40;;
59854;SDS011;45732;52.850;6.896;2023-12-28T00:32:25;5.90;;;3.40;;
59854;SDS011;45732;52.850;6.896;2023-12-28T00:34:51;9.45;;;3.70;;
59854;SDS011;45732;52.850;6.896;2023-12-28T00:37:16;6.75;;;3.53;;
59854;SDS011;45732;52.850;6.896;2023-12-28T00:39:42;7.15;;;3.67;;
59854;SDS011;45732;52.850;6.896;2023-12-28T00:42:09;6.60;;;3.45;;
59854;SDS011;45732;52.850;6.896;2023-12-28T00:44:35;8.00;;;3.92;;
59854;SDS011;45732;52.850;6.896;2023-12-28T00:47:00;9.15;;;3.90;;
59854;SDS011;45732;52.850;6.896;2023-12-28T00:49:26;8.82;;;3.78;;
59854;SDS011;45732;52.850;6.896;2023-12-28T00:51:52;7.90;;;3.55;;
59854;SDS011;45732;52.850;6.896;2023-12-28T00:54:19;7.70;;;3.55;;
59854;SDS011;45732;52.850;6.896;2023-12-28T00:56:44;7.10;;;3.42;;
59854;SDS011;45732;52.850;6.896;2023-12-28T00:59:10;7.43;;;3.75;;
59854;SDS011;45732;52.850;6.896;2023-12-28T01:01:36;7.60;;;3.53;;
59854;SDS011;45732;52.850;6.896;2023-12-28T01:04:01;6.65;;;3.53;;
59854;SDS011;45732;52.850;6.896;2023-12-28T01:06:27;9.30;;;3.80;;
59854;SDS011;45732;52.850;6.896;2023-12-28T01:08:56;10.50;;;3.90;;
59854;SDS011;45732;52.850;6.896;2023-12-28T01:11:22;7.63;;;3.67;;
59854;SDS011;45732;52.850;6.896;2023-12-28T01:13:48;7.20;;;3.63;;
59854;SDS011;45732;52.850;6.896;2023-12-28T01:16:13;9.25;;;3.85;;
59854;SDS011;45732;52.850;6.896;2023-12-28T01:18:39;8.90;;;3.95;;
59854;SDS011;45732;52.850;6.896;2023-12-28T01:21:05;9.68;;;3.63;;
59854;SDS011;45732;52.850;6.896;2023-12-28T01:23:31;7.70;;;3.70;;
59854;SDS011;45732;52.850;6.896;2023-12-28T01:25:57;7.97;;;3.20;;
59854;SDS011;45732;52.850;6.896;2023-12-28T01:28:24;7.65;;;3.42;;
59854;SDS011;45732;52.850;6.896;2023-12-28T01:30:49;9.27;;;4.15;;
59854;SDS011;45732;52.850;6.896;2023-12-28T01:33:15;7.20;;;3.50;;
59854;SDS011;45732;52.850;6.896;2023-12-28T01:35:41;6.03;;;3.10;;
59854;SDS011;45732;52.850;6.896;2023-12-28T01:38:07;10.55;;;3.70;;
59854;SDS011;45732;52.850;6.896;2023-12-28T01:40:33;9.15;;;3.63;;
59854;SDS011;45732;52.850;6.896;2023-12-28T01:42:58;7.97;;;3.70;;
59854;SDS011;45732;52.850;6.896;2023-12-28T01:45:24;8.07;;;3.60;;
59854;SDS011;45732;52.850;6.896;2023-12-28T01:47:50;6.47;;;3.30;;
59854;SDS011;45732;52.850;6.896;2023-12-28T01:50:17;6.78;;;3.30;;
59854;SDS011;45732;52.850;6.896;2023-12-28T01:52:44;8.90;;;3.92;;
59854;SDS011;45732;52.850;6.896;2023-12-28T01:55:11;9.45;;;3.85;;
59854;SDS011;45732;52.850;6.896;2023-12-28T01:57:37;10.20;;;3.97;;
59854;SDS011;45732;52.850;6.896;2023-12-28T02:00:03;8.25;;;3.72;;
59854;SDS011;45732;52.850;6.896;2023-12-28T02:02:33;9.35;;;3.65;;
59854;SDS011;45732;52.850;6.896;2023-12-28T02:04:59;7.88;;;3.80;;
59854;SDS011;45732;52.850;6.896;2023-12-28T02:07:26;7.18;;;3.47;;
59854;SDS011;45732;52.850;6.896;2023-12-28T02:09:54;8.52;;;4.00;;
59854;SDS011;45732;52.850;6.896;2023-12-28T02:12:20;8.80;;;4.00;;
59854;SDS011;45732;52.850;6.896;2023-12-28T02:14:46;7.28;;;3.50;;
59854;SDS011;45732;52.850;6.896;2023-12-28T02:22:17;8.23;;;3.80;;
59854;SDS011;45732;52.850;6.896;2023-12-28T02:27:27;8.68;;;3.70;;
59854;SDS011;45732;52.850;6.896;2023-12-28T02:29:54;6.90;;;3.60;;
59854;SDS011;45732;52.850;6.896;2023-12-28T02:32:22;8.23;;;4.00;;
59854;SDS011;45732;52.850;6.896;2023-12-28T02:35:00;7.68;;;3.85;;
59854;SDS011;45732;52.850;6.896;2023-12-28T02:37:31;6.43;;;3.50;;
59854;SDS011;45732;52.850;6.896;2023-12-28T02:39:59;6.78;;;3.80;;
59854;SDS011;45732;52.850;6.896;2023-12-28T02:42:25;9.45;;;3.53;;
59854;SDS011;45732;52.850;6.896;2023-12-28T02:44:51;6.53;;;3.33;;
59854;SDS011;45732;52.850;6.896;2023-12-28T02:47:17;8.05;;;3.72;;
59854;SDS011;45732;52.850;6.896;2023-12-28T02:49:42;7.88;;;3.78;;
59854;SDS011;45732;52.850;6.896;2023-12-28T02:52:08;11.50;;;3.33;;
59854;SDS011;45732;52.850;6.896;2023-12-28T02:54:34;6.82;;;3.65;;
59854;SDS011;45732;52.850;6.896;2023-12-28T02:56:59;9.95;;;3.90;;
59854;SDS011;45732;52.850;6.896;2023-12-28T02:59:25;8.52;;;3.53;;
59854;SDS011;45732;52.850;6.896;2023-12-28T03:01:50;8.02;;;3.92;;
59854;SDS011;45732;52.850;6.896;2023-12-28T03:04:16;8.70;;;3.70;;
59854;SDS011;45732;52.850;6.896;2023-12-28T03:06:42;7.72;;;3.90;;
59854;SDS011;45732;52.850;6.896;2023-12-28T03:09:11;9.48;;;3.80;;
59854;SDS011;45732;52.850;6.896;2023-12-28T03:11:36;9.68;;;3.80;;
59854;SDS011;45732;52.850;6.896;2023-12-28T03:14:02;9.00;;;3.65;;
59854;SDS011;45732;52.850;6.896;2023-12-28T03:16:28;7.75;;;3.63;;
59854;SDS011;45732;52.850;6.896;2023-12-28T03:18:53;10.32;;;3.47;;
59854;SDS011;45732;52.850;6.896;2023-12-28T03:21:19;8.02;;;3.40;;
59854;SDS011;45732;52.850;6.896;2023-12-28T03:23:45;8.90;;;3.47;;
59854;SDS011;45732;52.850;6.896;2023-12-28T03:26:10;9.32;;;3.83;;
59854;SDS011;45732;52.850;6.896;2023-12-28T03:28:36;7.05;;;3.55;;
59854;SDS011;45732;52.850;6.896;2023-12-28T03:31:02;9.85;;;3.97;;
59854;SDS011;45732;52.850;6.896;2023-12-28T03:33:28;8.13;;;3.53;;
59854;SDS011;45732;52.850;6.896;2023-12-28T03:35:54;8.40;;;4.10;;
59854;SDS011;45732;52.850;6.896;2023-12-28T03:38:19;9.30;;;3.55;;
59854;SDS011;45732;52.850;6.896;2023-12-28T03:40:45;8.52;;;3.42;;
59854;SDS011;45732;52.850;6.896;2023-12-28T03:43:13;9.40;;;4.13;;
59854;SDS011;45732;52.850;6.896;2023-12-28T03:45:38;7.78;;;3.25;;
59854;SDS011;45732;52.850;6.896;2023-12-28T03:48:04;8.25;;;3.40;;
59854;SDS011;45732;52.850;6.896;2023-12-28T03:50:30;9.23;;;3.63;;
59854;SDS011;45732;52.850;6.896;2023-12-28T03:52:55;7.03;;;2.92;;
59854;SDS011;45732;52.850;6.896;2023-12-28T03:55:23;9.98;;;3.10;;
59854;SDS011;45732;52.850;6.896;2023-12-28T03:57:49;10.88;;;3.42;;
59854;SDS011;45732;52.850;6.896;2023-12-28T04:00:16;9.27;;;3.45;;
59854;SDS011;45732;52.850;6.896;2023-12-28T04:02:42;9.25;;;3.53;;
59854;SDS011;45732;52.850;6.896;2023-12-28T04:05:07;8.48;;;3.50;;
59854;SDS011;45732;52.850;6.896;2023-12-28T04:07:33;9.30;;;3.30;;
59854;SDS011;45732;52.850;6.896;2023-12-28T04:09:59;7.07;;;3.30;;
59854;SDS011;45732;52.850;6.896;2023-12-28T04:12:24;7.55;;;3.25;;
59854;SDS011;45732;52.850;6.896;2023-12-28T04:14:51;10.35;;;3.47;;
59854;SDS011;45732;52.850;6.896;2023-12-28T04:17:17;8.32;;;3.50;;
59854;SDS011;45732;52.850;6.896;2023-12-28T04:19:42;11.23;;;3.42;;
59854;SDS011;45732;52.850;6.896;2023-12-28T04:22:08;7.40;;;3.28;;
59854;SDS011;45732;52.850;6.896;2023-12-28T04:24:34;7.13;;;3.00;;
59854;SDS011;45732;52.850;6.896;2023-12-28T04:26:59;9.75;;;3.40;;
59854;SDS011;45732;52.850;6.896;2023-12-28T04:29:25;7.35;;;2.97;;
59854;SDS011;45732;52.850;6.896;2023-12-28T04:31:51;11.15;;;3.28;;
59854;SDS011;45732;52.850;6.896;2023-12-28T04:34:16;7.50;;;3.05;;
59854;SDS011;45732;52.850;6.896;2023-12-28T04:36:42;6.43;;;2.67;;
59854;SDS011;45732;52.850;6.896;2023-12-28T04:39:09;6.82;;;2.97;;
59854;SDS011;45732;52.850;6.896;2023-12-28T04:41:35;10.35;;;3.00;;
59854;SDS011;45732;52.850;6.896;2023-12-28T04:44:01;7.80;;;3.00;;
59854;SDS011;45732;52.850;6.896;2023-12-28T04:46:26;9.75;;;3.33;;
59854;SDS011;45732;52.850;6.896;2023-12-28T04:48:52;10.20;;;2.90;;
59854;SDS011;45732;52.850;6.896;2023-12-28T04:51:18;10.82;;;3.60;;
59854;SDS011;45732;52.850;6.896;2023-12-28T04:53:43;8.20;;;2.70;;
59854;SDS011;45732;52.850;6.896;2023-12-28T04:56:09;9.23;;;2.72;;
59854;SDS011;45732;52.850;6.896;2023-12-28T04:58:35;9.70;;;2.90;;
59854;SDS011;45732;52.850;6.896;2023-12-28T05:01:03;8.15;;;2.88;;
59854;SDS011;45732;52.850;6.896;2023-12-28T05:03:29;9.00;;;2.85;;
59854;SDS011;45732;52.850;6.896;2023-12-28T05:05:54;9.50;;;2.83;;
59854;SDS011;45732;52.850;6.896;2023-12-28T05:08:20;11.32;;;2.88;;
59854;SDS011;45732;52.850;6.896;2023-12-28T05:10:46;11.18;;;2.70;;
59854;SDS011;45732;52.850;6.896;2023-12-28T05:13:11;10.60;;;2.80;;
59854;SDS011;45732;52.850;6.896;2023-12-28T05:15:37;10.73;;;2.53;;
59854;SDS011;45732;52.850;6.896;2023-12-28T05:18:03;11.77;;;2.90;;
59854;SDS011;45732;52.850;6.896;2023-12-28T05:20:29;12.75;;;2.67;;
59854;SDS011;45732;52.850;6.896;2023-12-28T05:22:54;8.52;;;2.25;;
59854;SDS011;45732;52.850;6.896;2023-12-28T05:25:20;12.55;;;2.85;;
59854;SDS011;45732;52.850;6.896;2023-12-28T05:27:46;11.38;;;2.70;;
59854;SDS011;45732;52.850;6.896;2023-12-28T05:30:12;11.13;;;3.08;;
59854;SDS011;45732;52.850;6.896;2023-12-28T05:32:37;12.15;;;3.53;;
59854;SDS011;45732;52.850;6.896;2023-12-28T05:35:03;11.98;;;2.60;;
59854;SDS011;45732;52.850;6.896;2023-12-28T05:37:29;12.48;;;2.80;;
59854;SDS011;45732;52.850;6.896;2023-12-28T05:39:55;15.00;;;3.13;;
59854;SDS011;45732;52.850;6.896;2023-12-28T05:42:22;10.68;;;2.72;;
59854;SDS011;45732;52.850;6.896;2023-12-28T05:44:48;9.68;;;3.03;;
59854;SDS011;45732;52.850;6.896;2023-12-28T05:47:13;14.77;;;2.65;;
59854;SDS011;45732;52.850;6.896;2023-12-28T05:49:39;8.93;;;2.13;;
59854;SDS011;45732;52.850;6.896;2023-12-28T05:52:05;9.07;;;3.10;;
59854;SDS011;45732;52.850;6.896;2023-12-28T05:54:31;11.80;;;2.75;;
59854;SDS011;45732;52.850;6.896;2023-12-28T05:56:56;10.52;;;2.80;;
59854;SDS011;45732;52.850;6.896;2023-12-28T05:59:22;13.40;;;3.10;;
59854;SDS011;45732;52.850;6.896;2023-12-28T06:01:51;11.63;;;2.72;;
59854;SDS011;45732;52.850;6.896;2023-12-28T06:04:17;13.27;;;2.95;;
59854;SDS011;45732;52.850;6.896;2023-12-28T06:06:43;14.52;;;3.30;;
59854;SDS011;45732;52.850;6.896;2023-12-28T06:09:08;11.15;;;2.75;;
59854;SDS011;45732;52.850;6.896;2023-12-28T06:11:34;12.60;;;2.92;;
59854;SDS011;45732;52.850;6.896;2023-12-28T06:14:00;13.20;;;3.30;;
59854;SDS011;45732;52.850;6.896;2023-12-28T06:16:26;12.05;;;3.03;;
59854;SDS011;45732;52.850;6.896;2023-12-28T06:18:52;12.20;;;2.78;;
59854;SDS011;45732;52.850;6.896;2023-12-28T06:21:18;7.40;;;2.47;;
59854;SDS011;45732;52.850;6.896;2023-12-28T06:23:43;12.90;;;2.60;;
59854;SDS011;45732;52.850;6.896;2023-12-28T06:26:09;14.25;;;3.00;;
59854;SDS011;45732;52.850;6.896;2023-12-28T06:28:35;9.85;;;2.85;;
59854;SDS011;45732;52.850;6.896;2023-12-28T06:31:01;12.50;;;2.67;;
59854;SDS011;45732;52.850;6.896;2023-12-28T06:33:28;14.25;;;2.80;;
59854;SDS011;45732;52.850;6.896;2023-12-28T06:35:54;11.63;;;2.72;;
59854;SDS011;45732;52.850;6.896;2023-12-28T06:38:20;12.07;;;2.83;;
59854;SDS011;45732;52.850;6.896;2023-12-28T06:40:45;14.18;;;3.00;;
59854;SDS011;45732;52.850;6.896;2023-12-28T06:43:11;14.18;;;3.40;;
59854;SDS011;45732;52.850;6.896;2023-12-28T06:45:37;14.68;;;3.03;;
59854;SDS011;45732;52.850;6.896;2023-12-28T06:48:03;13.75;;;2.83;;
59854;SDS011;45732;52.850;6.896;2023-12-28T06:50:29;16.05;;;3.30;;
59854;SDS011;45732;52.850;6.896;2023-12-28T06:52:55;13.73;;;2.72;;
59854;SDS011;45732;52.850;6.896;2023-12-28T06:55:22;16.02;;;2.88;;
59854;SDS011;45732;52.850;6.896;2023-12-28T06:57:48;12.23;;;3.25;;
59854;SDS011;45732;52.850;6.896;2023-12-28T07:00:13;12.48;;;2.78;;
59854;SDS011;45732;52.850;6.896;2023-12-28T07:02:39;13.48;;;3.15;;
59854;SDS011;45732;52.850;6.896;2023-12-28T07:05:05;16.40;;;3.08;;
59854;SDS011;45732;52.850;6.896;2023-12-28T07:07:31;12.50;;;2.72;;
59854;SDS011;45732;52.850;6.896;2023-12-28T07:09:56;17.95;;;3.08;;
59854;SDS011;45732;52.850;6.896;2023-12-28T07:12:23;14.60;;;3.10;;
59854;SDS011;45732;52.850;6.896;2023-12-28T07:14:49;12.57;;;3.10;;
59854;SDS011;45732;52.850;6.896;2023-12-28T07:17:14;11.05;;;2.90;;
59854;SDS011;45732;52.850;6.896;2023-12-28T07:19:42;18.17;;;3.50;;
59854;SDS011;45732;52.850;6.896;2023-12-28T07:22:09;15.02;;;3.65;;
59854;SDS011;45732;52.850;6.896;2023-12-28T07:24:34;17.50;;;3.85;;
59854;SDS011;45732;52.850;6.896;2023-12-28T07:27:00;13.23;;;3.15;;
59854;SDS011;45732;52.850;6.896;2023-12-28T07:29:26;15.38;;;3.35;;
59854;SDS011;45732;52.850;6.896;2023-12-28T07:31:51;14.63;;;3.03;;
59854;SDS011;45732;52.850;6.896;2023-12-28T07:34:18;19.88;;;3.20;;
59854;SDS011;45732;52.850;6.896;2023-12-28T07:36:45;13.25;;;2.97;;
59854;SDS011;45732;52.850;6.896;2023-12-28T07:39:11;14.60;;;3.17;;
59854;SDS011;45732;52.850;6.896;2023-12-28T07:41:36;14.52;;;3.20;;
59854;SDS011;45732;52.850;6.896;2023-12-28T07:44:02;12.70;;;3.17;;
59854;SDS011;45732;52.850;6.896;2023-12-28T07:46:28;18.13;;;3.20;;
59854;SDS011;45732;52.850;6.896;2023-12-28T07:48:54;14.57;;;2.90;;
59854;SDS011;45732;52.850;6.896;2023-12-28T07:51:19;15.48;;;2.90;;
59854;SDS011;45732;52.850;6.896;2023-12-28T07:53:45;18.65;;;3.63;;
59854;SDS011;45732;52.850;6.896;2023-12-28T07:56:11;14.52;;;2.72;;
59854;SDS011;45732;52.850;6.896;2023-12-28T07:58:37;12.75;;;2.63;;
59854;SDS011;45732;52.850;6.896;2023-12-28T08:01:08;13.80;;;2.88;;
59854;SDS011;45732;52.850;6.896;2023-12-28T08:03:36;14.05;;;3.25;;
59854;SDS011;45732;52.850;6.896;2023-12-28T08:06:01;18.73;;;3.70;;
59854;SDS011;45732;52.850;6.896;2023-12-28T08:08:27;13.25;;;2.80;;
59854;SDS011;45732;52.850;6.896;2023-12-28T08:10:53;21.23;;;4.15;;
59854;SDS011;45732;52.850;6.896;2023-12-28T08:13:18;19.50;;;3.60;;
59854;SDS011;45732;52.850;6.896;2023-12-28T08:15:44;17.23;;;3.17;;
59854;SDS011;45732;52.850;6.896;2023-12-28T08:18:11;19.08;;;3.47;;
59854;SDS011;45732;52.850;6.896;2023-12-28T08:20:37;17.10;;;3.70;;
59854;SDS011;45732;52.850;6.896;2023-12-28T08:23:03;17.50;;;3.30;;
59854;SDS011;45732;52.850;6.896;2023-12-28T08:25:28;17.33;;;3.05;;
59854;SDS011;45732;52.850;6.896;2023-12-28T08:27:54;17.17;;;3.15;;
59854;SDS011;45732;52.850;6.896;2023-12-28T08:30:20;14.73;;;3.53;;
59854;SDS011;45732;52.850;6.896;2023-12-28T08:32:46;15.18;;;3.40;;
59854;SDS011;45732;52.850;6.896;2023-12-28T08:35:12;20.60;;;4.40;;
59854;SDS011;45732;52.850;6.896;2023-12-28T08:37:38;15.93;;;3.65;;
59854;SDS011;45732;52.850;6.896;2023-12-28T08:40:03;19.13;;;3.42;;
59854;SDS011;45732;52.850;6.896;2023-12-28T08:42:29;20.70;;;3.83;;
59854;SDS011;45732;52.850;6.896;2023-12-28T08:44:55;21.50;;;4.28;;
59854;SDS011;45732;52.850;6.896;2023-12-28T08:47:21;14.93;;;3.42;;
59854;SDS011;45732;52.850;6.896;2023-12-28T08:49:47;16.30;;;4.20;;
59854;SDS011;45732;52.850;6.896;2023-12-28T08:52:13;14.45;;;3.50;;
59854;SDS011;45732;52.850;6.896;2023-12-28T08:54:39;18.63;;;3.35;;
59854;SDS011;45732;52.850;6.896;2023-12-28T08:57:06;21.30;;;3.97;;
59854;SDS011;45732;52.850;6.896;2023-12-28T08:59:35;19.15;;;3.72;;
59854;SDS011;45732;52.850;6.896;2023-12-28T09:02:01;17.05;;;3.72;;
59854;SDS011;45732;52.850;6.896;2023-12-28T09:04:27;19.30;;;3.97;;
59854;SDS011;45732;52.850;6.896;2023-12-28T09:06:53;23.83;;;4.03;;
59854;SDS011;45732;52.850;6.896;2023-12-28T09:09:18;22.08;;;3.90;;
59854;SDS011;45732;52.850;6.896;2023-12-28T09:11:44;19.95;;;4.10;;
59854;SDS011;45732;52.850;6.896;2023-12-28T09:14:10;18.73;;;3.67;;
59854;SDS011;45732;52.850;6.896;2023-12-28T09:16:36;19.58;;;4.15;;
59854;SDS011;45732;52.850;6.896;2023-12-28T09:19:01;20.70;;;3.95;;
59854;SDS011;45732;52.850;6.896;2023-12-28T09:21:27;18.42;;;4.05;;
59854;SDS011;45732;52.850;6.896;2023-12-28T09:23:53;21.05;;;4.10;;
59854;SDS011;45732;52.850;6.896;2023-12-28T09:26:18;18.10;;;4.00;;
59854;SDS011;45732;52.850;6.896;2023-12-28T09:28:44;17.73;;;4.45;;
59854;SDS011;45732;52.850;6.896;2023-12-28T09:31:10;22.10;;;3.72;;
59854;SDS011;45732;52.850;6.896;2023-12-28T09:33:36;23.27;;;4.47;;
59854;SDS011;45732;52.850;6.896;2023-12-28T09:36:05;18.95;;;3.70;;
59854;SDS011;45732;52.850;6.896;2023-12-28T09:38:31;19.90;;;4.10;;
59854;SDS011;45732;52.850;6.896;2023-12-28T09:40:57;21.10;;;3.85;;
59854;SDS011;45732;52.850;6.896;2023-12-28T09:43:34;16.17;;;3.35;;
59854;SDS011;45732;52.850;6.896;2023-12-28T09:46:06;19.17;;;4.05;;
59854;SDS011;45732;52.850;6.896;2023-12-28T09:48:32;20.10;;;4.07;;
59854;SDS011;45732;52.850;6.896;2023-12-28T09:50:59;19.95;;;3.40;;
59854;SDS011;45732;52.850;6.896;2023-12-28T09:53:25;21.38;;;3.85;;
59854;SDS011;45732;52.850;6.896;2023-12-28T09:55:52;27.92;;;4.90;;
59854;SDS011;45732;52.850;6.896;2023-12-28T09:58:18;16.90;;;3.67;;
59854;SDS011;45732;52.850;6.896;2023-12-28T10:00:45;22.05;;;4.35;;
59854;SDS011;45732;52.850;6.896;2023-12-28T10:03:13;19.27;;;4.05;;
59854;SDS011;45732;52.850;6.896;2023-12-28T10:05:42;23.90;;;4.03;;
59854;SDS011;45732;52.850;6.896;2023-12-28T10:08:08;18.38;;;3.42;;
59854;SDS011;45732;52.850;6.896;2023-12-28T10:10:37;19.17;;;4.43;;
59854;SDS011;45732;52.850;6.896;2023-12-28T10:13:03;19.00;;;3.67;;
59854;SDS011;45732;52.850;6.896;2023-12-28T10:15:30;19.40;;;3.90;;
59854;SDS011;45732;52.850;6.896;2023-12-28T10:17:56;20.65;;;4.30;;
59854;SDS011;45732;52.850;6.896;2023-12-28T10:20:22;19.15;;;3.58;;
59854;SDS011;45732;52.850;6.896;2023-12-28T10:22:51;21.27;;;3.95;;
59854;SDS011;45732;52.850;6.896;2023-12-28T10:25:16;17.83;;;3.60;;
59854;SDS011;45732;52.850;6.896;2023-12-28T10:27:42;24.48;;;4.35;;
59854;SDS011;45732;52.850;6.896;2023-12-28T10:30:08;19.08;;;4.20;;
59854;SDS011;45732;52.850;6.896;2023-12-28T10:32:40;23.80;;;3.85;;
59854;SDS011;45732;52.850;6.896;2023-12-28T10:35:06;18.73;;;4.50;;
59854;SDS011;45732;52.850;6.896;2023-12-28T10:37:32;20.42;;;3.50;;
59854;SDS011;45732;52.850;6.896;2023-12-28T10:40:01;23.90;;;4.05;;
59854;SDS011;45732;52.850;6.896;2023-12-28T10:42:37;21.52;;;3.83;;
59854;SDS011;45732;52.850;6.896;2023-12-28T10:45:10;18.92;;;3.58;;
59854;SDS011;45732;52.850;6.896;2023-12-28T10:47:37;16.70;;;3.65;;
59854;SDS011;45732;52.850;6.896;2023-12-28T10:50:04;15.75;;;3.58;;
59854;SDS011;45732;52.850;6.896;2023-12-28T10:52:31;15.20;;;3.65;;
59854;SDS011;45732;52.850;6.896;2023-12-28T10:55:04;21.23;;;4.18;;
59854;SDS011;45732;52.850;6.896;2023-12-28T11:00:22;22.30;;;3.72;;
59854;SDS011;45732;52.850;6.896;2023-12-28T11:02:53;16.48;;;3.45;;
59854;SDS011;45732;52.850;6.896;2023-12-28T11:05:24;15.88;;;3.80;;
59854;SDS011;45732;52.850;6.896;2023-12-28T11:07:52;15.52;;;3.10;;
59854;SDS011;45732;52.850;6.896;2023-12-28T11:10:23;23.50;;;4.28;;
59854;SDS011;45732;52.850;6.896;2023-12-28T11:12:52;15.82;;;3.95;;
59854;SDS011;45732;52.850;6.896;2023-12-28T11:15:19;18.38;;;3.63;;
59854;SDS011;45732;52.850;6.896;2023-12-28T11:17:46;21.08;;;3.88;;
59854;SDS011;45732;52.850;6.896;2023-12-28T11:20:11;19.08;;;3.83;;
59854;SDS011;45732;52.850;6.896;2023-12-28T11:22:39;18.52;;;3.92;;
59854;SDS011;45732;52.850;6.896;2023-12-28T11:25:06;20.45;;;3.50;;
59854;SDS011;45732;52.850;6.896;2023-12-28T11:27:34;17.30;;;3.58;;
59854;SDS011;45732;52.850;6.896;2023-12-28T11:30:03;21.63;;;4.03;;
59854;SDS011;45732;52.850;6.896;2023-12-28T11:32:32;21.13;;;3.83;;
59854;SDS011;45732;52.850;6.896;2023-12-28T11:34:59;19.77;;;3.83;;
59854;SDS011;45732;52.850;6.896;2023-12-28T11:37:26;22.25;;;4.05;;
59854;SDS011;45732;52.850;6.896;2023-12-28T11:39:52;20.35;;;3.80;;
59854;SDS011;45732;52.850;6.896;2023-12-28T11:42:22;22.73;;;3.60;;
59854;SDS011;45732;52.850;6.896;2023-12-28T11:44:53;23.80;;;3.72;;
59854;SDS011;45732;52.850;6.896;2023-12-28T11:49:49;19.33;;;3.75;;
59854;SDS011;45732;52.850;6.896;2023-12-28T11:52:26;16.63;;;3.50;;
59854;SDS011;45732;52.850;6.896;2023-12-28T11:54:53;19.63;;;3.70;;
59854;SDS011;45732;52.850;6.896;2023-12-28T11:57:19;22.55;;;3.10;;
59854;SDS011;45732;52.850;6.896;2023-12-28T11:59:45;20.20;;;3.30;;
59854;SDS011;45732;52.850;6.896;2023-12-28T12:02:13;15.45;;;3.35;;
59854;SDS011;45732;52.850;6.896;2023-12-28T12:04:39;16.15;;;3.53;;
59854;SDS011;45732;52.850;6.896;2023-12-28T12:07:05;18.95;;;4.38;;
59854;SDS011;45732;52.850;6.896;2023-12-28T12:09:30;20.45;;;3.70;;
59854;SDS011;45732;52.850;6.896;2023-12-28T12:12:00;22.15;;;3.65;;
59854;SDS011;45732;52.850;6.896;2023-12-28T12:14:26;22.48;;;4.22;;
59854;SDS011;45732;52.850;6.896;2023-12-28T12:16:53;16.60;;;3.80;;
59854;SDS011;45732;52.850;6.896;2023-12-28T12:19:22;16.38;;;3.47;;
59854;SDS011;45732;52.850;6.896;2023-12-28T12:21:48;24.42;;;4.47;;
59854;SDS011;45732;52.850;6.896;2023-12-28T12:24:16;17.67;;;3.88;;
59854;SDS011;45732;52.850;6.896;2023-12-28T12:26:43;18.17;;;3.88;;
59854;SDS011;45732;52.850;6.896;2023-12-28T12:29:10;20.58;;;3.67;;
59854;SDS011;45732;52.850;6.896;2023-12-28T12:31:36;19.13;;;3.40;;
59854;SDS011;45732;52.850;6.896;2023-12-28T12:34:05;18.52;;;3.45;;
59854;SDS011;45732;52.850;6.896;2023-12-28T12:36:31;17.15;;;3.95;;
59854;SDS011;45732;52.850;6.896;2023-12-28T12:38:56;19.05;;;3.80;;
59854;SDS011;45732;52.850;6.896;2023-12-28T12:41:22;18.13;;;4.10;;
59854;SDS011;45732;52.850;6.896;2023-12-28T12:43:48;17.52;;;3.58;;
59854;SDS011;45732;52.850;6.896;2023-12-28T12:46:14;23.25;;;4.00;;
59854;SDS011;45732;52.850;6.896;2023-12-28T12:48:40;19.65;;;3.53;;
59854;SDS011;45732;52.850;6.896;2023-12-28T12:51:06;22.10;;;4.47;;
59854;SDS011;45732;52.850;6.896;2023-12-28T12:53:34;22.63;;;4.00;;
59854;SDS011;45732;52.850;6.896;2023-12-28T12:56:02;17.75;;;4.30;;
59854;SDS011;45732;52.850;6.896;2023-12-28T12:58:29;24.67;;;4.25;;
59854;SDS011;45732;52.850;6.896;2023-12-28T13:00:56;19.45;;;4.15;;
59854;SDS011;45732;52.850;6.896;2023-12-28T13:03:22;21.13;;;4.45;;
59854;SDS011;45732;52.850;6.896;2023-12-28T13:05:52;21.08;;;4.63;;
59854;SDS011;45732;52.850;6.896;2023-12-28T13:08:18;24.83;;;4.03;;
59854;SDS011;45732;52.850;6.896;2023-12-28T13:10:44;19.77;;;3.78;;
59854;SDS011;45732;52.850;6.896;2023-12-28T13:13:09;22.75;;;5.05;;
59854;SDS011;45732;52.850;6.896;2023-12-28T13:15:35;23.35;;;4.25;;
59854;SDS011;45732;52.850;6.896;2023-12-28T13:18:01;18.85;;;4.28;;
59854;SDS011;45732;52.850;6.896;2023-12-28T13:20:27;24.42;;;4.75;;
59854;SDS011;45732;52.850;6.896;2023-12-28T13:22:52;17.83;;;3.78;;
59854;SDS011;45732;52.850;6.896;2023-12-28T13:25:18;18.05;;;4.22;;
59854;SDS011;45732;52.850;6.896;2023-12-28T13:27:44;21.92;;;3.80;;
59854;SDS011;45732;52.850;6.896;2023-12-28T13:30:09;22.30;;;4.38;;
59854;SDS011;45732;52.850;6.896;2023-12-28T13:32:37;22.85;;;4.55;;
59854;SDS011;45732;52.850;6.896;2023-12-28T13:35:02;20.73;;;4.10;;
59854;SDS011;45732;52.850;6.896;2023-12-28T13:37:29;25.60;;;4.20;;
59854;SDS011;45732;52.850;6.896;2023-12-28T13:39:55;22.88;;;4.43;;
59854;SDS011;45732;52.850;6.896;2023-12-28T13:42:20;24.42;;;4.35;;
59854;SDS011;45732;52.850;6.896;2023-12-28T13:44:46;23.05;;;4.20;;
59854;SDS011;45732;52.850;6.896;2023-12-28T13:47:12;19.55;;;4.00;;
59854;SDS011;45732;52.850;6.896;2023-12-28T13:49:38;18.50;;;4.20;;
59854;SDS011;45732;52.850;6.896;2023-12-28T13:52:03;19.77;;;4.20;;
59854;SDS011;45732;52.850;6.896;2023-12-28T13:54:29;23.52;;;4.70;;
59854;SDS011;45732;52.850;6.896;2023-12-28T13:56:55;19.42;;;4.10;;
59854;SDS011;45732;52.850;6.896;2023-12-28T13:59:23;18.40;;;3.75;;
59854;SDS011;45732;52.850;6.896;2023-12-28T14:01:49;24.13;;;4.38;;
59854;SDS011;45732;52.850;6.896;2023-12-28T14:04:15;22.55;;;4.18;;
59854;SDS011;45732;52.850;6.896;2023-12-28T14:06:41;23.23;;;4.43;;
59854;SDS011;45732;52.850;6.896;2023-12-28T14:09:06;19.60;;;4.40;;
59854;SDS011;45732;52.850;6.896;2023-12-28T14:11:33;16.90;;;3.55;;
59854;SDS011;45732;52.850;6.896;2023-12-28T14:13:59;23.25;;;4.80;;
59854;SDS011;45732;52.850;6.896;2023-12-28T14:16:25;24.00;;;4.38;;
59854;SDS011;45732;52.850;6.896;2023-12-28T14:18:50;18.90;;;4.20;;
59854;SDS011;45732;52.850;6.896;2023-12-28T14:21:17;19.90;;;3.97;;
59854;SDS011;45732;52.850;6.896;2023-12-28T14:23:43;20.27;;;4.70;;
59854;SDS011;45732;52.850;6.896;2023-12-28T14:26:13;20.15;;;3.70;;
59854;SDS011;45732;52.850;6.896;2023-12-28T14:28:43;19.85;;;4.25;;
59854;SDS011;45732;52.850;6.896;2023-12-28T14:31:09;21.70;;;4.15;;
59854;SDS011;45732;52.850;6.896;2023-12-28T14:33:36;18.00;;;3.75;;
59854;SDS011;45732;52.850;6.896;2023-12-28T14:36:05;20.27;;;4.07;;
59854;SDS011;45732;52.850;6.896;2023-12-28T14:38:36;21.75;;;4.03;;
59854;SDS011;45732;52.850;6.896;2023-12-28T14:41:02;18.67;;;3.60;;
59854;SDS011;45732;52.850;6.896;2023-12-28T14:43:28;17.17;;;4.15;;
59854;SDS011;45732;52.850;6.896;2023-12-28T14:45:54;16.83;;;3.92;;